createdAt,value
2023-04-09T00:00:39.771Z,4.60
2023-04-09T00:03:07.913Z,4.50
2023-04-09T00:05:40.392Z,4.50
2023-04-09T00:08:08.554Z,4.40
2023-04-09T00:10:38.218Z,4.50
2023-04-09T00:13:06.467Z,4.40
2023-04-09T00:15:34.504Z,4.50
2023-04-09T00:18:02.612Z,4.40
2023-04-09T00:20:30.693Z,4.40
2023-04-09T00:22:58.786Z,4.40
2023-04-09T00:25:26.836Z,4.40
2023-04-09T00:27:56.668Z,4.40
2023-04-09T00:30:24.901Z,4.40
2023-04-09T00:32:52.982Z,4.40
2023-04-09T00:35:21.273Z,4.40
2023-04-09T00:37:49.290Z,4.30
2023-04-09T00:40:17.310Z,4.30
2023-04-09T00:42:45.711Z,4.30
2023-04-09T00:45:15.320Z,4.30
2023-04-09T00:47:45.505Z,4.30
2023-04-09T00:50:13.613Z,4.20
2023-04-09T00:52:41.785Z,4.20
2023-04-09T00:55:11.815Z,4.20
2023-04-09T00:57:39.857Z,4.20
2023-04-09T01:00:11.271Z,4.10
2023-04-09T01:02:41.892Z,4.10
2023-04-09T01:05:10.756Z,4.10
2023-04-09T01:07:54.236Z,4.00
2023-04-09T01:10:29.447Z,4.00
2023-04-09T01:13:08.354Z,4.00
2023-04-09T01:15:40.021Z,3.90
2023-04-09T01:18:12.985Z,3.90
2023-04-09T01:20:43.525Z,3.90
2023-04-09T01:23:19.713Z,4.00
2023-04-09T01:26:03.032Z,3.90
2023-04-09T01:28:36.325Z,3.90
2023-04-09T01:31:08.716Z,3.90
2023-04-09T01:33:38.894Z,3.90
2023-04-09T01:36:08.858Z,3.90
2023-04-09T01:38:38.130Z,3.90
2023-04-09T01:41:07.876Z,3.80
2023-04-09T01:43:39.236Z,3.80
2023-04-09T01:46:07.376Z,3.80
2023-04-09T01:48:35.831Z,3.80
2023-04-09T01:51:04.324Z,3.80
2023-04-09T01:53:32.319Z,3.80
2023-04-09T01:56:01.257Z,3.80
2023-04-09T01:58:29.414Z,3.80
2023-04-09T02:01:06.371Z,3.80
2023-04-09T02:03:38.494Z,3.80
2023-04-09T02:06:14.190Z,3.80
2023-04-09T02:08:45.778Z,3.80
2023-04-09T02:11:15.739Z,3.80
2023-04-09T02:13:45.302Z,3.80
2023-04-09T02:16:16.780Z,3.80
2023-04-09T02:18:44.863Z,3.70
2023-04-09T02:21:13.881Z,3.70
2023-04-09T02:23:41.990Z,3.70
2023-04-09T02:26:10.037Z,3.70
2023-04-09T02:28:38.240Z,3.60
2023-04-09T02:31:06.498Z,3.60
2023-04-09T02:33:35.967Z,3.60
2023-04-09T02:36:04.057Z,3.60
2023-04-09T02:38:32.494Z,3.50
2023-04-09T02:41:00.563Z,3.50
2023-04-09T02:43:28.604Z,3.50
2023-04-09T02:45:56.658Z,3.50
2023-04-09T02:48:24.709Z,3.50
2023-04-09T02:50:54.143Z,3.50
2023-04-09T02:53:22.535Z,3.50
2023-04-09T02:55:50.591Z,3.50
2023-04-09T02:58:18.613Z,3.50
2023-04-09T03:00:46.622Z,3.50
2023-04-09T03:03:14.751Z,3.50
2023-04-09T03:05:42.885Z,3.50
2023-04-09T03:08:12.300Z,3.40
2023-04-09T03:10:40.375Z,3.40
2023-04-09T03:13:08.417Z,3.30
2023-04-09T03:15:36.515Z,3.20
2023-04-09T03:18:04.676Z,3.10
2023-04-09T03:20:32.743Z,3.10
2023-04-09T03:23:00.745Z,3.10
2023-04-09T03:25:30.291Z,3.10
2023-04-09T03:27:58.337Z,3.20
2023-04-09T03:30:27.006Z,3.20
2023-04-09T03:32:55.083Z,3.30
2023-04-09T03:35:23.221Z,3.30
2023-04-09T03:37:51.313Z,3.30
2023-04-09T03:40:19.519Z,3.30
2023-04-09T03:42:48.967Z,3.30
2023-04-09T03:45:16.993Z,3.30
2023-04-09T03:47:45.355Z,3.20
2023-04-09T03:50:14.193Z,3.30
2023-04-09T03:52:42.213Z,3.30
2023-04-09T03:55:11.397Z,3.30
2023-04-09T03:57:39.516Z,3.30
2023-04-09T04:00:10.473Z,3.30
2023-04-09T04:02:38.598Z,3.30
2023-04-09T04:05:07.332Z,3.20
2023-04-09T04:07:35.427Z,3.20
2023-04-09T04:10:05.680Z,3.20
2023-04-09T04:12:33.842Z,3.30
2023-04-09T04:15:02.661Z,3.20
2023-04-09T04:17:32.129Z,3.20
2023-04-09T04:20:00.286Z,3.30
2023-04-09T04:22:28.403Z,3.30
2023-04-09T04:24:56.532Z,3.20
2023-04-09T04:27:24.610Z,3.20
2023-04-09T04:29:52.688Z,3.20
2023-04-09T04:32:20.800Z,3.10
2023-04-09T04:34:51.700Z,3.20
2023-04-09T04:37:19.855Z,3.20
2023-04-09T04:39:47.938Z,3.10
2023-04-09T04:42:16.541Z,3.20
2023-04-09T04:44:44.672Z,3.10
2023-04-09T04:47:12.897Z,3.10
2023-04-09T04:49:40.949Z,3.20
2023-04-09T04:52:10.519Z,3.10
2023-04-09T04:54:38.669Z,3.20
2023-04-09T04:57:06.774Z,3.20
2023-04-09T04:59:34.894Z,3.10
2023-04-09T05:02:04.435Z,3.10
2023-04-09T05:04:32.573Z,3.10
2023-04-09T05:07:01.210Z,3.00
2023-04-09T05:09:30.738Z,2.90
2023-04-09T05:11:58.808Z,2.90
2023-04-09T05:14:26.910Z,2.90
2023-04-09T05:16:55.326Z,3.00
2023-04-09T05:19:23.442Z,3.00
2023-04-09T05:21:51.552Z,3.00
2023-04-09T05:24:19.659Z,3.10
2023-04-09T05:26:49.205Z,3.10
2023-04-09T05:29:17.752Z,3.00
2023-04-09T05:31:46.212Z,3.00
2023-04-09T05:34:14.284Z,3.00
2023-04-09T05:36:42.336Z,3.00
2023-04-09T05:39:10.945Z,3.00
2023-04-09T05:41:39.219Z,3.00
2023-04-09T05:44:08.828Z,3.30
2023-04-09T05:46:36.913Z,3.60
2023-04-09T05:49:05.489Z,4.00
2023-04-09T05:51:33.558Z,4.20
2023-04-09T05:54:02.221Z,4.30
2023-04-09T05:56:30.287Z,4.20
2023-04-09T05:58:58.391Z,4.20
2023-04-09T06:01:28.063Z,4.10
2023-04-09T06:03:58.283Z,4.00
2023-04-09T06:06:27.004Z,4.00
2023-04-09T06:08:55.077Z,3.90
2023-04-09T06:11:23.478Z,3.90
2023-04-09T06:13:52.677Z,3.90
2023-04-09T06:16:21.144Z,3.90
2023-04-09T06:18:54.349Z,4.00
2023-04-09T06:21:22.383Z,4.00
2023-04-09T06:23:51.728Z,4.00
2023-04-09T06:26:20.060Z,4.10
2023-04-09T06:28:48.112Z,4.30
2023-04-09T06:31:16.380Z,4.40
2023-04-09T06:33:44.483Z,4.50
2023-04-09T06:36:13.993Z,4.60
2023-04-09T06:38:42.120Z,4.80
2023-04-09T06:41:12.667Z,4.90
2023-04-09T06:43:40.935Z,5.00
2023-04-09T06:46:09.285Z,5.10
2023-04-09T06:48:37.496Z,5.20
2023-04-09T06:51:07.565Z,5.30
2023-04-09T06:53:37.417Z,5.50
2023-04-09T06:56:06.200Z,5.70
2023-04-09T06:58:34.351Z,5.70
2023-04-09T07:01:02.488Z,5.70
2023-04-09T07:03:31.238Z,5.70
2023-04-09T07:05:59.459Z,5.70
2023-04-09T07:08:28.648Z,5.90
2023-04-09T07:10:58.142Z,5.90
2023-04-09T07:13:26.297Z,6.00
2023-04-09T07:15:54.317Z,6.20
2023-04-09T07:18:22.435Z,6.20
2023-04-09T07:20:50.445Z,6.30
2023-04-09T07:23:18.502Z,6.30
2023-04-09T07:25:47.298Z,6.40
2023-04-09T07:28:16.714Z,6.50
2023-04-09T07:30:46.559Z,6.70
2023-04-09T07:33:14.676Z,6.80
2023-04-09T07:35:43.109Z,7.00
2023-04-09T07:38:11.181Z,7.20
2023-04-09T07:40:39.238Z,7.40
2023-04-09T07:43:07.631Z,7.50
2023-04-09T07:45:37.133Z,7.60
2023-04-09T07:48:05.354Z,7.70
2023-04-09T07:50:33.773Z,7.80
2023-04-09T07:53:01.889Z,7.90
2023-04-09T07:55:30.010Z,8.00
2023-04-09T07:57:58.009Z,8.20
2023-04-09T08:00:26.215Z,8.20
2023-04-09T08:02:55.971Z,8.10
2023-04-09T08:05:24.336Z,8.10
2023-04-09T08:07:52.726Z,8.20
2023-04-09T08:10:20.907Z,8.10
2023-04-09T08:12:49.962Z,8.20
2023-04-09T08:15:18.283Z,8.40
2023-04-09T08:17:46.463Z,8.50
2023-04-09T08:20:16.968Z,8.70
2023-04-09T08:22:45.358Z,8.70
2023-04-09T08:25:13.546Z,8.60
2023-04-09T08:27:41.662Z,8.40
2023-04-09T08:30:11.157Z,8.40
2023-04-09T08:32:39.235Z,8.30
2023-04-09T08:35:09.113Z,8.30
2023-04-09T08:37:38.534Z,8.40
2023-04-09T08:40:07.749Z,8.50
2023-04-09T08:42:37.450Z,8.60
2023-04-09T08:45:06.274Z,8.70
2023-04-09T08:47:35.319Z,8.90
2023-04-09T08:50:03.738Z,9.10
2023-04-09T08:52:34.542Z,9.30
2023-04-09T08:55:04.028Z,9.50
2023-04-09T08:57:37.808Z,9.70
2023-04-09T09:00:07.297Z,9.80
2023-04-09T09:02:35.735Z,9.80
2023-04-09T09:05:04.008Z,9.80
2023-04-09T09:07:32.714Z,9.70
2023-04-09T09:10:03.566Z,9.80
2023-04-09T09:12:38.467Z,9.90
2023-04-09T09:15:07.912Z,10.10
2023-04-09T09:17:54.070Z,10.30
2023-04-09T09:20:23.091Z,10.30
2023-04-09T09:22:54.878Z,10.50
2023-04-09T09:25:25.558Z,10.60
2023-04-09T09:27:55.540Z,10.80
2023-04-09T09:30:24.799Z,10.90
2023-04-09T09:33:05.451Z,11.00
2023-04-09T09:35:48.981Z,11.10
2023-04-09T09:38:17.338Z,11.10
2023-04-09T09:40:45.753Z,11.20
2023-04-09T09:43:15.494Z,11.20
2023-04-09T09:45:44.446Z,11.30
2023-04-09T09:48:13.320Z,11.30
2023-04-09T09:50:42.891Z,11.40
2023-04-09T09:53:12.693Z,11.50
2023-04-09T09:55:42.189Z,11.40
2023-04-09T09:58:17.781Z,11.50
2023-04-09T10:00:48.931Z,11.50
2023-04-09T10:03:22.339Z,11.60
2023-04-09T10:05:51.618Z,11.60
2023-04-09T10:08:20.889Z,11.70
2023-04-09T10:10:49.621Z,11.70
2023-04-09T10:13:25.615Z,11.80
2023-04-09T10:15:54.260Z,11.90
2023-04-09T10:18:22.469Z,12.10
2023-04-09T10:20:59.422Z,12.40
2023-04-09T10:23:35.163Z,12.50
2023-04-09T10:26:04.356Z,12.40
2023-04-09T10:28:33.901Z,12.50
2023-04-09T10:31:02.794Z,12.60
2023-04-09T10:33:30.994Z,12.70
2023-04-09T10:36:02.931Z,12.80
2023-04-09T10:38:38.564Z,12.80
2023-04-09T10:41:15.407Z,12.70
2023-04-09T10:43:44.949Z,12.70
2023-04-09T10:46:30.177Z,12.80
2023-04-09T10:49:14.599Z,12.90
2023-04-09T10:51:45.184Z,12.90
2023-04-09T10:54:38.838Z,12.90
2023-04-09T10:57:21.254Z,13.00
2023-04-09T10:59:52.711Z,13.00
2023-04-09T11:03:02.423Z,13.20
2023-04-09T11:05:34.827Z,13.30
2023-04-09T11:08:09.424Z,13.40
2023-04-09T11:10:38.892Z,13.40
2023-04-09T11:13:07.223Z,13.40
2023-04-09T11:15:37.836Z,13.50
2023-04-09T11:18:09.786Z,13.50
2023-04-09T11:20:38.061Z,13.50
2023-04-09T11:23:06.871Z,13.50
2023-04-09T11:25:36.093Z,13.60
2023-04-09T11:28:06.112Z,13.60
2023-04-09T11:30:35.809Z,13.70
2023-04-09T11:33:05.551Z,13.80
2023-04-09T11:35:35.845Z,13.80
2023-04-09T11:38:08.148Z,13.80
2023-04-09T11:40:36.634Z,13.80
2023-04-09T11:43:04.781Z,13.90
2023-04-09T11:45:33.793Z,14.00
2023-04-09T11:48:05.201Z,14.00
2023-04-09T11:50:33.923Z,14.20
2023-04-09T11:53:01.984Z,14.30
2023-04-09T11:55:30.730Z,14.30
2023-04-09T11:58:01.058Z,14.30
2023-04-09T12:00:30.343Z,14.40
2023-04-09T12:03:03.982Z,14.30
2023-04-09T12:05:35.604Z,14.30
2023-04-09T12:08:05.799Z,14.30
2023-04-09T12:10:36.179Z,14.10
2023-04-09T12:13:07.167Z,14.10
2023-04-09T12:15:37.019Z,14.10
2023-04-09T12:18:08.873Z,14.10
2023-04-09T12:20:40.626Z,14.30
2023-04-09T12:23:09.903Z,14.30
2023-04-09T12:25:39.690Z,14.40
2023-04-09T12:28:09.051Z,14.50
2023-04-09T12:30:37.267Z,14.50
2023-04-09T12:33:06.770Z,14.60
2023-04-09T12:35:36.063Z,14.70
2023-04-09T12:38:06.200Z,14.70
2023-04-09T12:40:34.898Z,14.80
2023-04-09T12:43:03.039Z,14.70
2023-04-09T12:45:31.871Z,14.60
2023-04-09T12:48:00.060Z,14.60
2023-04-09T12:50:28.384Z,14.70
2023-04-09T12:52:56.461Z,14.70
2023-04-09T12:55:25.981Z,14.80
2023-04-09T12:57:54.064Z,14.90
2023-04-09T13:00:22.368Z,14.90
2023-04-09T13:02:52.744Z,15.10
2023-04-09T13:05:21.058Z,15.10
2023-04-09T13:07:49.070Z,15.20
2023-04-09T13:10:17.612Z,15.20
2023-04-09T13:12:47.097Z,15.20
2023-04-09T13:15:15.158Z,15.30
2023-04-09T13:17:43.234Z,15.30
2023-04-09T13:20:12.398Z,15.30
2023-04-09T13:22:40.768Z,15.40
2023-04-09T13:25:09.386Z,15.40
2023-04-09T13:27:37.489Z,15.40
2023-04-09T13:30:08.483Z,15.40
2023-04-09T13:32:36.699Z,15.30
2023-04-09T13:35:04.983Z,15.40
2023-04-09T13:37:33.066Z,15.40
2023-04-09T13:40:01.278Z,15.30
2023-04-09T13:42:29.364Z,15.20
2023-04-09T13:44:57.568Z,15.20
2023-04-09T13:47:27.161Z,15.30
2023-04-09T13:49:55.273Z,15.20
2023-04-09T13:52:24.646Z,15.30
2023-04-09T13:54:54.340Z,15.30
2023-04-09T13:57:22.450Z,15.40
2023-04-09T13:59:50.761Z,15.30
2023-04-09T14:02:19.310Z,15.10
2023-04-09T14:04:49.081Z,14.90
2023-04-09T14:07:17.159Z,14.70
2023-04-09T14:09:45.224Z,14.70
2023-04-09T14:12:13.346Z,14.50
2023-04-09T14:14:41.480Z,14.60
2023-04-09T14:17:09.530Z,14.60
2023-04-09T14:19:37.959Z,14.50
2023-04-09T14:22:09.096Z,14.50
2023-04-09T14:24:40.074Z,14.40
2023-04-09T14:27:08.723Z,14.30
2023-04-09T14:29:37.244Z,14.30
2023-04-09T14:32:05.367Z,14.30
2023-04-09T14:34:33.455Z,14.40
2023-04-09T14:37:01.632Z,14.50
2023-04-09T14:39:31.080Z,14.60
2023-04-09T14:41:59.193Z,14.60
2023-04-09T14:44:27.702Z,14.60
2023-04-09T14:46:56.275Z,14.60
2023-04-09T14:49:24.501Z,14.60
2023-04-09T14:51:52.584Z,14.60
2023-04-09T14:54:20.620Z,14.50
2023-04-09T14:56:50.063Z,14.50
2023-04-09T14:59:18.133Z,14.60
2023-04-09T15:01:46.318Z,14.60
2023-04-09T15:04:14.498Z,14.60
2023-04-09T15:06:42.597Z,14.70
2023-04-09T15:09:10.611Z,14.70
2023-04-09T15:11:38.697Z,14.60
2023-04-09T15:14:08.183Z,14.50
2023-04-09T15:16:37.566Z,14.40
2023-04-09T15:19:05.874Z,14.30
2023-04-09T15:21:33.944Z,14.20
2023-04-09T15:24:02.345Z,14.20
2023-04-09T15:26:30.386Z,14.10
2023-04-09T15:29:04.000Z,14.00
2023-04-09T15:31:33.850Z,14.10
2023-04-09T15:34:02.023Z,14.00
2023-04-09T15:36:31.515Z,14.00
2023-04-09T15:38:59.711Z,14.00
2023-04-09T15:41:27.779Z,14.00
2023-04-09T15:43:55.990Z,14.00
2023-04-09T15:46:24.134Z,14.00
2023-04-09T15:48:54.132Z,14.00
2023-04-09T15:51:22.416Z,13.90
2023-04-09T15:53:50.542Z,13.90
2023-04-09T15:56:19.873Z,13.70
2023-04-09T15:58:47.923Z,13.70
2023-04-09T16:01:16.045Z,13.60
2023-04-09T16:03:44.179Z,13.60
2023-04-09T16:06:14.440Z,13.60
2023-04-09T16:08:42.486Z,13.60
2023-04-09T16:11:10.941Z,13.60
2023-04-09T16:13:38.989Z,13.60
2023-04-09T16:16:08.016Z,13.60
2023-04-09T16:18:36.531Z,13.60
2023-04-09T16:21:05.706Z,13.50
2023-04-09T16:23:35.467Z,13.50
2023-04-09T16:26:03.903Z,13.50
2023-04-09T16:28:31.998Z,13.40
2023-04-09T16:31:00.890Z,13.40
2023-04-09T16:33:28.979Z,13.40
2023-04-09T16:35:57.019Z,13.40
2023-04-09T16:38:27.546Z,13.40
2023-04-09T16:40:57.185Z,13.50
2023-04-09T16:43:26.063Z,13.60
2023-04-09T16:45:54.561Z,13.50
2023-04-09T16:48:22.672Z,13.50
2023-04-09T16:50:50.772Z,13.50
2023-04-09T16:53:18.767Z,13.50
2023-04-09T16:55:46.814Z,13.50
2023-04-09T16:58:16.693Z,13.50
2023-04-09T17:00:46.905Z,13.50
2023-04-09T17:03:15.993Z,13.50
2023-04-09T17:05:49.312Z,13.50
2023-04-09T17:08:17.917Z,13.50
2023-04-09T17:10:46.294Z,13.40
2023-04-09T17:13:15.812Z,13.40
2023-04-09T17:15:43.808Z,13.30
2023-04-09T17:18:11.851Z,13.20
2023-04-09T17:20:39.894Z,13.20
2023-04-09T17:23:08.677Z,13.20
2023-04-09T17:25:36.983Z,13.10
2023-04-09T17:28:06.014Z,13.10
2023-04-09T17:30:36.181Z,13.00
2023-04-09T17:33:04.319Z,13.00
2023-04-09T17:35:32.739Z,13.00
2023-04-09T17:38:01.209Z,12.90
2023-04-09T17:40:29.574Z,12.90
2023-04-09T17:42:57.608Z,12.90
2023-04-09T17:45:25.668Z,12.90
2023-04-09T17:47:55.309Z,12.80
2023-04-09T17:50:23.347Z,12.80
2023-04-09T17:52:51.350Z,12.80
2023-04-09T17:55:19.362Z,12.70
2023-04-09T17:57:47.410Z,12.70
2023-04-09T18:00:16.122Z,12.60
2023-04-09T18:02:45.069Z,12.60
2023-04-09T18:05:14.731Z,12.60
2023-04-09T18:07:42.823Z,12.50
2023-04-09T18:10:11.429Z,12.40
2023-04-09T18:12:39.422Z,12.30
2023-04-09T18:15:08.535Z,12.40
2023-04-09T18:17:36.648Z,12.30
2023-04-09T18:20:05.062Z,12.30
2023-04-09T18:22:35.156Z,12.20
2023-04-09T18:25:04.162Z,12.20
2023-04-09T18:27:32.290Z,12.20
2023-04-09T18:30:00.376Z,12.20
2023-04-09T18:32:28.385Z,12.10
2023-04-09T18:34:56.980Z,12.10
2023-04-09T18:37:26.539Z,12.00
2023-04-09T18:39:55.917Z,12.00
2023-04-09T18:42:24.021Z,11.90
2023-04-09T18:44:52.103Z,11.80
2023-04-09T18:47:20.106Z,11.70
2023-04-09T18:49:48.208Z,11.70
2023-04-09T18:52:16.200Z,11.70
2023-04-09T18:54:44.261Z,11.70
2023-04-09T18:57:13.652Z,11.60
2023-04-09T18:59:42.271Z,11.60
2023-04-09T19:02:10.355Z,11.50
2023-04-09T19:04:40.082Z,11.40
2023-04-09T19:07:08.610Z,11.40
2023-04-09T19:09:37.364Z,11.40
2023-04-09T19:12:05.978Z,11.40
2023-04-09T19:14:36.436Z,11.40
2023-04-09T19:17:04.498Z,11.30
2023-04-09T19:19:32.554Z,11.30
2023-04-09T19:22:00.773Z,11.30
2023-04-09T19:24:28.757Z,11.20
2023-04-09T19:26:57.283Z,11.10
2023-04-09T19:29:25.293Z,11.10
2023-04-09T19:31:54.794Z,11.10
2023-04-09T19:34:23.244Z,11.10
2023-04-09T19:36:51.325Z,11.00
2023-04-09T19:39:19.928Z,11.00
2023-04-09T19:41:47.952Z,10.90
2023-04-09T19:44:15.991Z,10.80
2023-04-09T19:46:44.182Z,10.70
2023-04-09T19:49:13.636Z,10.70
2023-04-09T19:51:41.654Z,10.60
2023-04-09T19:54:10.812Z,10.50
2023-04-09T19:56:39.139Z,10.50
2023-04-09T19:59:07.293Z,10.40
2023-04-09T20:01:35.386Z,10.40
2023-04-09T20:04:03.520Z,10.30
2023-04-09T20:06:35.501Z,10.20
2023-04-09T20:09:03.506Z,10.20
2023-04-09T20:11:31.646Z,10.20
2023-04-09T20:14:00.157Z,10.10
2023-04-09T20:16:28.206Z,10.10
2023-04-09T20:18:56.281Z,10.00
2023-04-09T20:21:24.349Z,10.00
2023-04-09T20:23:53.742Z,9.90
2023-04-09T20:26:21.794Z,9.80
2023-04-09T20:28:49.808Z,9.80
2023-04-09T20:31:17.915Z,9.70
2023-04-09T20:33:46.376Z,9.70
2023-04-09T20:36:18.503Z,9.60
2023-04-09T20:38:46.645Z,9.60
2023-04-09T20:41:16.139Z,9.60
2023-04-09T20:43:44.128Z,9.50
2023-04-09T20:46:13.579Z,9.50
2023-04-09T20:48:42.374Z,9.50
2023-04-09T20:51:11.290Z,9.50
2023-04-09T20:53:39.793Z,9.50
2023-04-09T20:56:09.226Z,9.40
2023-04-09T20:58:38.906Z,9.40
2023-04-09T21:01:09.278Z,9.40
2023-04-09T21:03:38.248Z,9.40
2023-04-09T21:06:07.203Z,9.30
2023-04-09T21:08:36.779Z,9.20
2023-04-09T21:11:04.999Z,9.20
2023-04-09T21:13:37.884Z,9.10
2023-04-09T21:16:20.384Z,9.00
2023-04-09T21:18:48.872Z,9.00
2023-04-09T21:21:17.211Z,9.00
2023-04-09T21:23:45.227Z,9.00
2023-04-09T21:26:14.128Z,8.90
2023-04-09T21:28:42.269Z,8.80
2023-04-09T21:31:11.431Z,8.80
2023-04-09T21:33:40.966Z,8.70
2023-04-09T21:36:09.189Z,8.70
2023-04-09T21:38:37.274Z,8.70
2023-04-09T21:41:05.690Z,8.70
2023-04-09T21:43:34.669Z,8.70
2023-04-09T21:46:03.148Z,8.70
2023-04-09T21:48:33.880Z,8.70
2023-04-09T21:51:03.599Z,8.60
2023-04-09T21:53:32.662Z,8.60
2023-04-09T21:56:02.322Z,8.50
2023-04-09T21:58:32.501Z,8.40
2023-04-09T22:01:00.727Z,8.40
2023-04-09T22:03:28.817Z,8.30
2023-04-09T22:05:57.030Z,8.30
2023-04-09T22:08:26.409Z,8.30
2023-04-09T22:10:54.372Z,8.20
2023-04-09T22:13:22.333Z,8.20
2023-04-09T22:15:50.478Z,8.20
2023-04-09T22:18:18.492Z,8.10
2023-04-09T22:20:47.146Z,8.10
2023-04-09T22:23:15.138Z,8.10
2023-04-09T22:25:44.499Z,8.10
2023-04-09T22:28:12.464Z,8.10
2023-04-09T22:30:40.926Z,8.10
2023-04-09T22:33:09.061Z,8.20
2023-04-09T22:35:37.096Z,8.20
2023-04-09T22:38:05.850Z,8.10
2023-04-09T22:40:33.844Z,8.10
2023-04-09T22:43:03.428Z,8.00
2023-04-09T22:45:32.216Z,8.00
2023-04-09T22:48:00.374Z,8.00
2023-04-09T22:50:28.901Z,8.00
2023-04-09T22:52:56.938Z,8.00
2023-04-09T22:55:24.936Z,7.90
2023-04-09T22:57:52.918Z,7.80
2023-04-09T23:00:22.534Z,7.80
2023-04-09T23:02:51.081Z,7.70
2023-04-09T23:05:19.300Z,7.70
2023-04-09T23:07:48.200Z,7.70
2023-04-09T23:10:17.416Z,7.60
2023-04-09T23:12:45.440Z,7.60
2023-04-09T23:15:13.507Z,7.60
2023-04-09T23:17:42.957Z,7.50
2023-04-09T23:20:14.772Z,7.50
2023-04-09T23:22:43.034Z,7.60
2023-04-09T23:25:11.399Z,7.60
2023-04-09T23:27:39.358Z,7.50
2023-04-09T23:30:08.846Z,7.50
2023-04-09T23:32:36.943Z,7.40
2023-04-09T23:35:07.209Z,7.40
2023-04-09T23:37:35.351Z,7.40
2023-04-09T23:40:03.770Z,7.40
2023-04-09T23:42:33.053Z,7.40
2023-04-09T23:45:04.147Z,7.40
2023-04-09T23:47:33.633Z,7.40
2023-04-09T23:50:04.871Z,7.40
2023-04-09T23:52:35.207Z,7.30
2023-04-09T23:55:03.358Z,7.30
2023-04-09T23:57:31.371Z,7.30
2023-04-09T23:59:59.362Z,7.30
